Tuesday, April 24, 2018, 3:43 AM CDT
Back to Local

KMDW, Chicago Midway Airport

Location: Chicago, IL, United States Lat: 41.783
Local Time: 3:43 AM CDT ( 8:43 GMT) Lon: -87.75
Time Zone: US/Central Elev: 620 ft

Show me the last for .
Show Coded

Time T Td Feel RH Dir Speed Gust Alt SLP Vis Weather Sky Remarks
2018-04-24 03:03 52 36 - 54 20° 5 - 30.06 - 10 -DZ SCT009 OVC018 1-hr Precip Total: Trace
2018-04-24 02:53 53 38 - 56 360° 5 - 30.06 30.06 10 -DZ BKN009 OVC013 1-hr Precip Total: Trace
2018-04-24 02:40 53 40 - 60 10° 5 - 30.06 - 10 -RA BKN009 OVC013 1-hr Precip Total: Trace
2018-04-24 02:10 52 40 - 63 30° 3 - 30.06 - 10 -DZ BKN010 OVC021 1-hr Precip Total: Trace
2018-04-24 01:53 52 39 - 61 40° 3 - 30.07 30.06 10 -RA FEW012 OVC022 1-hr Precip Total: Trace
2018-04-24 01:08 51 37 - 58 40° 6 - 30.08 - 10 -DZ SCT014 OVC022 1-hr Precip Total: Trace
2018-04-24 00:53 52 37 - 56 50° 5 - 30.08 30.08 10 -DZ BKN014 OVC022 1-hr Precip Total: Trace
6-hr Precip Total (1am): 0.00"
6-hr Min Temp (1am): 50.0°F
6-hr Max Temp (1am): 55.0°F
24-hr Min Temp (1am): 43.0°F
24-hr Max Temp (1am): 64.0°F
2018-04-24 00:29 52 36 - 54 90° 6 - 30.09 - 10 BKN014 OVC019 1-hr Precip Total: Trace
2018-04-23 23:53 52 35 - 52 - Calm - 30.10 30.09 10 BKN022 BKN041 OVC060 1-hr Precip Total: Trace
2018-04-23 23:39 52 35 - 52 50° 3 - 30.10 - 10 BKN023 OVC060 1-hr Precip Total: Trace
2018-04-23 22:53 52 34 - 50 360° 3 - 30.10 30.10 10 -RA FEW047 OVC060 1-hr Precip Total: Trace
2018-04-23 21:53 51 31 - 45 40° 6 - 30.11 30.12 10 OVC075 1-hr Precip Total: Trace
6-hr Precip Total (10pm): 0.00"
2018-04-23 20:53 51 31 - 45 30° 9 - 30.12 30.12 10 -RA FEW070 SCT085 OVC110 1-hr Precip Total: Trace
2018-04-23 19:53 52 28 - 39 70° 10 - 30.12 30.12 10 FEW070 OVC110 None
2018-04-23 18:53 55 27 - 33 30° 12 - 30.10 30.11 10 FEW070 OVC120 6-hr Min Temp (7pm): 55.0°F
6-hr Max Temp (7pm): 64.0°F
2018-04-23 17:53 58 27 - 30 20° 13 - 30.10 30.11 10 FEW080 BKN110 OVC250 None
2018-04-23 16:53 60 30 - 31 20° 16 - 30.10 30.10 10 BKN130 OVC250 None
2018-04-23 15:53 61 31 - 32 40° 15 - 30.10 30.10 10 BKN140 OVC250 None
2018-04-23 14:53 62 33 - 33 40° 13 - 30.11 30.11 10 SCT140 BKN170 BKN250 None
2018-04-23 13:53 61 33 - 34 30° 12 - 30.12 30.12 10 BKN170 BKN250 None
2018-04-23 12:53 60 31 - 33 10° 13 - 30.13 30.13 10 BKN180 BKN250 6-hr Min Temp (1pm): 46.9°F
6-hr Max Temp (1pm): 60.1°F
2018-04-23 11:53 57 30 - 35 50° 14 - 30.15 30.16 10 FEW150 SCT200 BKN250 None
2018-04-23 10:53 55 30 - 38 30° 13 - 30.17 30.17 10 FEW150 SCT200 BKN250 None
2018-04-23 09:53 53 30 - 41 40° 12 - 30.19 30.20 10 SCT200 OVC250 None
2018-04-23 08:53 50 28 46 42 30° 12 - 30.20 30.21 10 SCT200 OVC250 None
2018-04-23 07:53 50 29 46 43 30° 9 - 30.21 30.21 10 BKN200 OVC250 None
2018-04-23 06:53 47 29 44 49 30° 7 - 30.21 30.21 10 BKN200 OVC250 6-hr Min Temp (7am): 43.0°F
6-hr Max Temp (7am): 46.9°F
2018-04-23 05:53 46 26 42 45 40° 8 - 30.21 30.21 10 SCT220 BKN250 None
2018-04-23 04:53 46 26 42 45 60° 8 - 30.21 30.21 10 BKN250 None
2018-04-23 03:53 46 26 42 45 60° 8 - 30.20 30.20 10 BKN250 None

Support USWX by starting your Amazon purchase here.